sensor_id;sensor_type;location;lat;lon;timestamp;P1;durP1;ratioP1;P2;durP2;ratioP2
33357;SDS011;19717;42.614;23.418;2022-08-11T00:01:18;8.05;;;6.07;;
33357;SDS011;19717;42.614;23.418;2022-08-11T00:03:55;9.02;;;6.72;;
33357;SDS011;19717;42.614;23.418;2022-08-11T00:06:26;9.35;;;6.00;;
33357;SDS011;19717;42.614;23.418;2022-08-11T00:11:20;7.80;;;6.57;;
33357;SDS011;19717;42.614;23.418;2022-08-11T00:13:47;11.27;;;6.32;;
33357;SDS011;19717;42.614;23.418;2022-08-11T00:16:17;8.38;;;6.07;;
33357;SDS011;19717;42.614;23.418;2022-08-11T00:18:48;9.45;;;6.95;;
33357;SDS011;19717;42.614;23.418;2022-08-11T00:21:16;10.55;;;6.40;;
33357;SDS011;19717;42.614;23.418;2022-08-11T00:24:00;8.20;;;6.50;;
33357;SDS011;19717;42.614;23.418;2022-08-11T00:26:28;8.98;;;6.55;;
33357;SDS011;19717;42.614;23.418;2022-08-11T00:28:55;9.13;;;6.45;;
33357;SDS011;19717;42.614;23.418;2022-08-11T00:31:23;10.05;;;6.47;;
33357;SDS011;19717;42.614;23.418;2022-08-11T00:33:51;7.57;;;6.45;;
33357;SDS011;19717;42.614;23.418;2022-08-11T00:36:19;9.70;;;6.80;;
33357;SDS011;19717;42.614;23.418;2022-08-11T00:38:51;7.10;;;6.25;;
33357;SDS011;19717;42.614;23.418;2022-08-11T00:43:56;9.13;;;6.78;;
33357;SDS011;19717;42.614;23.418;2022-08-11T00:49:32;10.32;;;7.10;;
33357;SDS011;19717;42.614;23.418;2022-08-11T01:21:45;10.23;;;7.70;;
33357;SDS011;19717;42.614;23.418;2022-08-11T01:27:05;9.23;;;7.32;;
33357;SDS011;19717;42.614;23.418;2022-08-11T01:29:49;10.70;;;7.60;;
33357;SDS011;19717;42.614;23.418;2022-08-11T01:40:14;8.05;;;7.20;;
33357;SDS011;19717;42.614;23.418;2022-08-11T01:51:07;11.38;;;7.40;;
33357;SDS011;19717;42.614;23.418;2022-08-11T02:01:05;9.85;;;7.40;;
33357;SDS011;19717;42.614;23.418;2022-08-11T02:03:46;12.55;;;7.60;;
33357;SDS011;19717;42.614;23.418;2022-08-11T02:06:29;10.60;;;7.10;;
33357;SDS011;19717;42.614;23.418;2022-08-11T02:09:24;9.20;;;7.75;;
33357;SDS011;19717;42.614;23.418;2022-08-11T02:11:51;9.50;;;7.55;;
33357;SDS011;19717;42.614;23.418;2022-08-11T02:14:25;10.35;;;7.47;;
33357;SDS011;19717;42.614;23.418;2022-08-11T02:25:47;9.80;;;7.70;;
33357;SDS011;19717;42.614;23.418;2022-08-11T02:30:56;9.45;;;7.32;;
33357;SDS011;19717;42.614;23.418;2022-08-11T02:33:43;10.68;;;7.78;;
33357;SDS011;19717;42.614;23.418;2022-08-11T02:36:16;13.75;;;7.53;;
33357;SDS011;19717;42.614;23.418;2022-08-11T02:39:28;8.95;;;7.47;;
33357;SDS011;19717;42.614;23.418;2022-08-11T02:45:03;9.60;;;7.35;;
33357;SDS011;19717;42.614;23.418;2022-08-11T02:50:00;9.52;;;8.02;;
33357;SDS011;19717;42.614;23.418;2022-08-11T02:57:40;9.52;;;8.05;;
33357;SDS011;19717;42.614;23.418;2022-08-11T03:00:09;15.70;;;7.78;;
33357;SDS011;19717;42.614;23.418;2022-08-11T03:13:30;9.93;;;8.00;;
33357;SDS011;19717;42.614;23.418;2022-08-11T03:16:19;11.85;;;8.48;;
33357;SDS011;19717;42.614;23.418;2022-08-11T03:21:45;13.30;;;8.20;;
33357;SDS011;19717;42.614;23.418;2022-08-11T03:24:14;14.05;;;9.73;;
33357;SDS011;19717;42.614;23.418;2022-08-11T03:29:36;19.15;;;12.40;;
33357;SDS011;19717;42.614;23.418;2022-08-11T03:32:27;17.67;;;11.50;;
33357;SDS011;19717;42.614;23.418;2022-08-11T03:34:51;19.15;;;11.82;;
33357;SDS011;19717;42.614;23.418;2022-08-11T03:37:25;17.17;;;12.25;;
33357;SDS011;19717;42.614;23.418;2022-08-11T03:50:15;12.00;;;9.00;;
33357;SDS011;19717;42.614;23.418;2022-08-11T04:11:47;13.32;;;8.90;;
33357;SDS011;19717;42.614;23.418;2022-08-11T04:17:33;11.48;;;8.45;;
33357;SDS011;19717;42.614;23.418;2022-08-11T04:38:00;10.82;;;8.52;;
33357;SDS011;19717;42.614;23.418;2022-08-11T04:57:27;16.30;;;9.90;;
33357;SDS011;19717;42.614;23.418;2022-08-11T05:00:17;15.32;;;10.07;;
33357;SDS011;19717;42.614;23.418;2022-08-11T05:05:43;16.65;;;10.15;;
33357;SDS011;19717;42.614;23.418;2022-08-11T05:16:08;15.18;;;9.68;;
33357;SDS011;19717;42.614;23.418;2022-08-11T05:18:53;15.38;;;9.55;;
33357;SDS011;19717;42.614;23.418;2022-08-11T05:21:40;20.08;;;8.82;;
33357;SDS011;19717;42.614;23.418;2022-08-11T05:24:29;13.75;;;9.40;;
33357;SDS011;19717;42.614;23.418;2022-08-11T05:27:14;15.25;;;8.98;;
33357;SDS011;19717;42.614;23.418;2022-08-11T05:30:01;15.45;;;8.70;;
33357;SDS011;19717;42.614;23.418;2022-08-11T05:32:53;11.98;;;8.63;;
33357;SDS011;19717;42.614;23.418;2022-08-11T05:35:43;11.88;;;8.85;;
33357;SDS011;19717;42.614;23.418;2022-08-11T05:38:13;11.32;;;8.70;;
33357;SDS011;19717;42.614;23.418;2022-08-11T05:40:59;11.52;;;8.77;;
33357;SDS011;19717;42.614;23.418;2022-08-11T05:43:45;12.77;;;8.80;;
33357;SDS011;19717;42.614;23.418;2022-08-11T05:46:37;10.73;;;8.68;;
33357;SDS011;19717;42.614;23.418;2022-08-11T05:49:23;11.45;;;8.38;;
33357;SDS011;19717;42.614;23.418;2022-08-11T05:52:12;10.57;;;8.82;;
33357;SDS011;19717;42.614;23.418;2022-08-11T05:55:02;12.82;;;8.23;;
33357;SDS011;19717;42.614;23.418;2022-08-11T05:57:47;14.95;;;8.50;;
33357;SDS011;19717;42.614;23.418;2022-08-11T06:00:13;20.90;;;12.70;;
33357;SDS011;19717;42.614;23.418;2022-08-11T06:02:50;10.70;;;8.32;;
33357;SDS011;19717;42.614;23.418;2022-08-11T06:05:19;13.63;;;8.70;;
33357;SDS011;19717;42.614;23.418;2022-08-11T06:07:46;15.63;;;8.77;;
33357;SDS011;19717;42.614;23.418;2022-08-11T06:10:12;12.63;;;8.55;;
33357;SDS011;19717;42.614;23.418;2022-08-11T06:12:39;12.20;;;8.50;;
33357;SDS011;19717;42.614;23.418;2022-08-11T06:15:06;10.38;;;8.00;;
33357;SDS011;19717;42.614;23.418;2022-08-11T06:17:34;11.88;;;8.13;;
33357;SDS011;19717;42.614;23.418;2022-08-11T06:20:04;13.23;;;8.27;;
33357;SDS011;19717;42.614;23.418;2022-08-11T06:22:36;14.57;;;8.70;;
33357;SDS011;19717;42.614;23.418;2022-08-11T06:25:02;12.43;;;8.13;;
33357;SDS011;19717;42.614;23.418;2022-08-11T06:27:29;10.27;;;7.40;;
33357;SDS011;19717;42.614;23.418;2022-08-11T06:29:56;12.00;;;6.97;;
33357;SDS011;19717;42.614;23.418;2022-08-11T06:32:28;10.55;;;7.47;;
33357;SDS011;19717;42.614;23.418;2022-08-11T06:35:17;10.32;;;7.10;;
33357;SDS011;19717;42.614;23.418;2022-08-11T06:38:01;11.82;;;7.00;;
33357;SDS011;19717;42.614;23.418;2022-08-11T06:40:32;9.20;;;6.63;;
33357;SDS011;19717;42.614;23.418;2022-08-11T06:43:05;15.35;;;7.03;;
33357;SDS011;19717;42.614;23.418;2022-08-11T06:45:47;11.60;;;8.15;;
33357;SDS011;19717;42.614;23.418;2022-08-11T06:48:18;6.55;;;5.85;;
33357;SDS011;19717;42.614;23.418;2022-08-11T06:50:52;13.15;;;6.10;;
33357;SDS011;19717;42.614;23.418;2022-08-11T06:53:49;10.52;;;5.93;;
33357;SDS011;19717;42.614;23.418;2022-08-11T06:56:23;7.03;;;5.63;;
33357;SDS011;19717;42.614;23.418;2022-08-11T06:59:08;10.35;;;5.63;;
33357;SDS011;19717;42.614;23.418;2022-08-11T07:02:07;6.47;;;5.07;;
33357;SDS011;19717;42.614;23.418;2022-08-11T07:04:39;8.68;;;5.38;;
33357;SDS011;19717;42.614;23.418;2022-08-11T07:19:05;7.10;;;5.20;;
33357;SDS011;19717;42.614;23.418;2022-08-11T07:21:50;8.00;;;4.53;;
33357;SDS011;19717;42.614;23.418;2022-08-11T07:24:47;5.15;;;4.47;;
33357;SDS011;19717;42.614;23.418;2022-08-11T07:27:43;5.63;;;4.40;;
33357;SDS011;19717;42.614;23.418;2022-08-11T07:30:29;6.60;;;4.68;;
33357;SDS011;19717;42.614;23.418;2022-08-11T07:32:57;8.60;;;4.55;;
33357;SDS011;19717;42.614;23.418;2022-08-11T07:35:31;9.55;;;4.40;;
33357;SDS011;19717;42.614;23.418;2022-08-11T07:38:01;5.60;;;4.53;;
33357;SDS011;19717;42.614;23.418;2022-08-11T07:40:28;6.43;;;4.90;;
33357;SDS011;19717;42.614;23.418;2022-08-11T07:42:55;7.10;;;5.05;;
33357;SDS011;19717;42.614;23.418;2022-08-11T07:45:22;8.45;;;4.70;;
33357;SDS011;19717;42.614;23.418;2022-08-11T07:48:08;7.40;;;4.40;;
33357;SDS011;19717;42.614;23.418;2022-08-11T07:50:54;11.23;;;4.43;;
33357;SDS011;19717;42.614;23.418;2022-08-11T07:53:39;5.55;;;4.53;;
33357;SDS011;19717;42.614;23.418;2022-08-11T07:56:05;6.75;;;4.57;;
33357;SDS011;19717;42.614;23.418;2022-08-11T07:58:33;5.40;;;4.60;;
33357;SDS011;19717;42.614;23.418;2022-08-11T08:01:20;7.13;;;4.63;;
33357;SDS011;19717;42.614;23.418;2022-08-11T08:04:06;4.95;;;4.40;;
33357;SDS011;19717;42.614;23.418;2022-08-11T08:06:51;5.80;;;4.20;;
33357;SDS011;19717;42.614;23.418;2022-08-11T08:09:36;6.82;;;3.97;;
33357;SDS011;19717;42.614;23.418;2022-08-11T08:12:22;5.53;;;4.80;;
33357;SDS011;19717;42.614;23.418;2022-08-11T08:15:12;5.60;;;4.13;;
33357;SDS011;19717;42.614;23.418;2022-08-11T08:17:58;7.80;;;4.35;;
33357;SDS011;19717;42.614;23.418;2022-08-11T08:20:29;5.65;;;4.63;;
33357;SDS011;19717;42.614;23.418;2022-08-11T08:22:57;5.65;;;4.30;;
33357;SDS011;19717;42.614;23.418;2022-08-11T08:25:24;5.28;;;4.68;;
33357;SDS011;19717;42.614;23.418;2022-08-11T08:27:51;8.80;;;4.65;;
33357;SDS011;19717;42.614;23.418;2022-08-11T08:30:18;4.80;;;4.30;;
33357;SDS011;19717;42.614;23.418;2022-08-11T08:33:03;4.53;;;4.10;;
33357;SDS011;19717;42.614;23.418;2022-08-11T08:35:29;4.50;;;4.10;;
33357;SDS011;19717;42.614;23.418;2022-08-11T08:37:56;8.27;;;4.00;;
33357;SDS011;19717;42.614;23.418;2022-08-11T08:40:24;5.82;;;3.97;;
33357;SDS011;19717;42.614;23.418;2022-08-11T08:42:57;8.32;;;4.07;;
33357;SDS011;19717;42.614;23.418;2022-08-11T08:45:26;5.35;;;4.68;;
33357;SDS011;19717;42.614;23.418;2022-08-11T08:50:21;6.20;;;4.15;;
33357;SDS011;19717;42.614;23.418;2022-08-11T08:53:08;4.70;;;3.92;;
33357;SDS011;19717;42.614;23.418;2022-08-11T08:55:34;4.60;;;4.07;;
33357;SDS011;19717;42.614;23.418;2022-08-11T08:58:00;6.55;;;4.45;;
33357;SDS011;19717;42.614;23.418;2022-08-11T09:00:36;4.70;;;4.20;;
33357;SDS011;19717;42.614;23.418;2022-08-11T09:03:03;4.90;;;4.25;;
33357;SDS011;19717;42.614;23.418;2022-08-11T09:05:29;5.63;;;4.22;;
33357;SDS011;19717;42.614;23.418;2022-08-11T09:07:56;4.65;;;4.03;;
33357;SDS011;19717;42.614;23.418;2022-08-11T09:10:22;5.57;;;3.90;;
33357;SDS011;19717;42.614;23.418;2022-08-11T09:12:49;5.75;;;3.88;;
33357;SDS011;19717;42.614;23.418;2022-08-11T09:15:15;3.70;;;3.40;;
33357;SDS011;19717;42.614;23.418;2022-08-11T09:17:43;4.32;;;3.75;;
33357;SDS011;19717;42.614;23.418;2022-08-11T09:20:17;7.35;;;4.35;;
33357;SDS011;19717;42.614;23.418;2022-08-11T09:22:44;4.55;;;3.65;;
33357;SDS011;19717;42.614;23.418;2022-08-11T09:25:30;4.32;;;3.88;;
33357;SDS011;19717;42.614;23.418;2022-08-11T09:28:16;6.20;;;4.18;;
33357;SDS011;19717;42.614;23.418;2022-08-11T09:30:42;4.15;;;3.75;;
33357;SDS011;19717;42.614;23.418;2022-08-11T09:33:10;4.70;;;4.20;;
33357;SDS011;19717;42.614;23.418;2022-08-11T09:35:37;3.90;;;3.60;;
33357;SDS011;19717;42.614;23.418;2022-08-11T09:38:04;4.25;;;3.70;;
33357;SDS011;19717;42.614;23.418;2022-08-11T09:40:50;5.20;;;4.20;;
33357;SDS011;19717;42.614;23.418;2022-08-11T09:43:17;3.63;;;3.33;;
33357;SDS011;19717;42.614;23.418;2022-08-11T09:46:02;5.70;;;3.75;;
33357;SDS011;19717;42.614;23.418;2022-08-11T09:48:36;4.88;;;3.47;;
33357;SDS011;19717;42.614;23.418;2022-08-11T09:51:03;6.63;;;3.50;;
33357;SDS011;19717;42.614;23.418;2022-08-11T09:53:30;6.55;;;4.13;;
33357;SDS011;19717;42.614;23.418;2022-08-11T09:55:57;12.18;;;4.60;;
33357;SDS011;19717;42.614;23.418;2022-08-11T09:58:23;8.80;;;4.50;;
33357;SDS011;19717;42.614;23.418;2022-08-11T10:00:51;5.18;;;4.68;;
33357;SDS011;19717;42.614;23.418;2022-08-11T10:03:22;7.78;;;4.05;;
33357;SDS011;19717;42.614;23.418;2022-08-11T10:05:57;5.60;;;4.35;;
33357;SDS011;19717;42.614;23.418;2022-08-11T10:08:43;5.05;;;4.47;;
33357;SDS011;19717;42.614;23.418;2022-08-11T10:11:11;6.32;;;4.40;;
33357;SDS011;19717;42.614;23.418;2022-08-11T10:13:40;5.30;;;4.30;;
33357;SDS011;19717;42.614;23.418;2022-08-11T10:16:27;5.07;;;4.28;;
33357;SDS011;19717;42.614;23.418;2022-08-11T10:18:54;9.13;;;4.38;;
33357;SDS011;19717;42.614;23.418;2022-08-11T10:23:52;4.88;;;3.85;;
33357;SDS011;19717;42.614;23.418;2022-08-11T10:26:37;5.97;;;4.45;;
33357;SDS011;19717;42.614;23.418;2022-08-11T10:29:22;5.03;;;4.30;;
33357;SDS011;19717;42.614;23.418;2022-08-11T10:32:08;5.60;;;4.38;;
33357;SDS011;19717;42.614;23.418;2022-08-11T10:34:53;5.55;;;4.63;;
33357;SDS011;19717;42.614;23.418;2022-08-11T10:37:21;4.97;;;4.47;;
33357;SDS011;19717;42.614;23.418;2022-08-11T10:39:48;7.97;;;4.50;;
33357;SDS011;19717;42.614;23.418;2022-08-11T10:42:15;5.70;;;4.47;;
33357;SDS011;19717;42.614;23.418;2022-08-11T10:45:00;6.85;;;4.72;;
33357;SDS011;19717;42.614;23.418;2022-08-11T10:47:28;4.75;;;4.28;;
33357;SDS011;19717;42.614;23.418;2022-08-11T10:50:08;5.68;;;4.55;;
33357;SDS011;19717;42.614;23.418;2022-08-11T10:52:54;13.73;;;4.88;;
33357;SDS011;19717;42.614;23.418;2022-08-11T10:55:38;8.55;;;4.57;;
33357;SDS011;19717;42.614;23.418;2022-08-11T10:58:26;6.72;;;4.65;;
33357;SDS011;19717;42.614;23.418;2022-08-11T11:01:11;6.55;;;4.75;;
33357;SDS011;19717;42.614;23.418;2022-08-11T11:03:38;5.75;;;4.53;;
33357;SDS011;19717;42.614;23.418;2022-08-11T11:08:50;5.65;;;4.55;;
33357;SDS011;19717;42.614;23.418;2022-08-11T11:11:16;9.57;;;5.65;;
33357;SDS011;19717;42.614;23.418;2022-08-11T11:13:44;9.18;;;4.82;;
33357;SDS011;19717;42.614;23.418;2022-08-11T11:16:29;6.10;;;4.75;;
33357;SDS011;19717;42.614;23.418;2022-08-11T11:19:14;8.18;;;4.70;;
33357;SDS011;19717;42.614;23.418;2022-08-11T11:21:43;7.13;;;4.70;;
33357;SDS011;19717;42.614;23.418;2022-08-11T11:32:16;4.63;;;4.15;;
33357;SDS011;19717;42.614;23.418;2022-08-11T11:37:31;5.03;;;3.83;;
33357;SDS011;19717;42.614;23.418;2022-08-11T11:39:59;5.65;;;4.22;;
33357;SDS011;19717;42.614;23.418;2022-08-11T11:42:26;4.60;;;4.07;;
33357;SDS011;19717;42.614;23.418;2022-08-11T11:44:53;5.35;;;3.90;;
33357;SDS011;19717;42.614;23.418;2022-08-11T11:47:19;4.35;;;3.60;;
33357;SDS011;19717;42.614;23.418;2022-08-11T11:49:47;4.93;;;3.42;;
33357;SDS011;19717;42.614;23.418;2022-08-11T11:52:17;3.97;;;3.35;;
33357;SDS011;19717;42.614;23.418;2022-08-11T11:54:47;8.60;;;3.67;;
33357;SDS011;19717;42.614;23.418;2022-08-11T11:57:17;4.20;;;3.80;;
33357;SDS011;19717;42.614;23.418;2022-08-11T12:00:09;6.38;;;3.90;;
33357;SDS011;19717;42.614;23.418;2022-08-11T12:02:58;4.03;;;3.63;;
33357;SDS011;19717;42.614;23.418;2022-08-11T12:05:25;8.05;;;4.45;;
33357;SDS011;19717;42.614;23.418;2022-08-11T12:07:52;5.13;;;3.92;;
33357;SDS011;19717;42.614;23.418;2022-08-11T12:10:36;4.10;;;3.67;;
33357;SDS011;19717;42.614;23.418;2022-08-11T12:13:02;9.55;;;3.38;;
33357;SDS011;19717;42.614;23.418;2022-08-11T12:15:47;5.03;;;4.00;;
33357;SDS011;19717;42.614;23.418;2022-08-11T12:18:15;6.00;;;4.28;;
33357;SDS011;19717;42.614;23.418;2022-08-11T12:20:41;5.05;;;3.85;;
33357;SDS011;19717;42.614;23.418;2022-08-11T12:23:08;7.72;;;4.10;;
33357;SDS011;19717;42.614;23.418;2022-08-11T12:28:58;4.70;;;3.80;;
33357;SDS011;19717;42.614;23.418;2022-08-11T12:31:25;4.75;;;3.80;;
33357;SDS011;19717;42.614;23.418;2022-08-11T12:33:51;4.05;;;3.65;;
33357;SDS011;19717;42.614;23.418;2022-08-11T12:36:19;4.10;;;3.50;;
33357;SDS011;19717;42.614;23.418;2022-08-11T12:38:46;6.68;;;3.75;;
33357;SDS011;19717;42.614;23.418;2022-08-11T12:41:14;6.07;;;3.90;;
33357;SDS011;19717;42.614;23.418;2022-08-11T12:44:00;4.90;;;3.83;;
33357;SDS011;19717;42.614;23.418;2022-08-11T12:46:45;7.43;;;4.28;;
33357;SDS011;19717;42.614;23.418;2022-08-11T12:49:13;6.88;;;4.10;;
33357;SDS011;19717;42.614;23.418;2022-08-11T12:52:06;11.20;;;4.47;;
33357;SDS011;19717;42.614;23.418;2022-08-11T12:54:36;5.32;;;4.15;;
33357;SDS011;19717;42.614;23.418;2022-08-11T12:57:09;7.10;;;3.90;;
33357;SDS011;19717;42.614;23.418;2022-08-11T12:59:55;8.80;;;3.88;;
33357;SDS011;19717;42.614;23.418;2022-08-11T13:02:41;5.38;;;4.10;;
33357;SDS011;19717;42.614;23.418;2022-08-11T13:05:25;6.25;;;4.40;;
33357;SDS011;19717;42.614;23.418;2022-08-11T13:07:52;7.40;;;4.30;;
33357;SDS011;19717;42.614;23.418;2022-08-11T13:10:18;6.70;;;3.78;;
33357;SDS011;19717;42.614;23.418;2022-08-11T13:13:05;4.78;;;3.95;;
33357;SDS011;19717;42.614;23.418;2022-08-11T13:15:32;6.53;;;3.97;;
33357;SDS011;19717;42.614;23.418;2022-08-11T13:18:00;8.05;;;3.83;;
33357;SDS011;19717;42.614;23.418;2022-08-11T13:20:26;8.32;;;3.83;;
33357;SDS011;19717;42.614;23.418;2022-08-11T13:22:53;8.73;;;3.80;;
33357;SDS011;19717;42.614;23.418;2022-08-11T13:25:21;8.77;;;3.80;;
33357;SDS011;19717;42.614;23.418;2022-08-11T13:27:50;4.15;;;3.75;;
33357;SDS011;19717;42.614;23.418;2022-08-11T13:30:17;6.75;;;3.30;;
33357;SDS011;19717;42.614;23.418;2022-08-11T13:33:03;5.90;;;3.85;;
33357;SDS011;19717;42.614;23.418;2022-08-11T13:35:31;6.05;;;3.78;;
33357;SDS011;19717;42.614;23.418;2022-08-11T13:37:58;7.78;;;4.07;;
33357;SDS011;19717;42.614;23.418;2022-08-11T13:40:25;10.05;;;3.58;;
33357;SDS011;19717;42.614;23.418;2022-08-11T13:42:52;7.43;;;3.83;;
33357;SDS011;19717;42.614;23.418;2022-08-11T13:45:19;5.82;;;3.63;;
33357;SDS011;19717;42.614;23.418;2022-08-11T13:47:47;5.72;;;3.58;;
33357;SDS011;19717;42.614;23.418;2022-08-11T13:50:14;5.43;;;3.90;;
33357;SDS011;19717;42.614;23.418;2022-08-11T13:52:40;5.05;;;3.60;;
33357;SDS011;19717;42.614;23.418;2022-08-11T13:55:08;6.05;;;4.35;;
33357;SDS011;19717;42.614;23.418;2022-08-11T13:57:35;7.28;;;3.50;;
33357;SDS011;19717;42.614;23.418;2022-08-11T14:00:03;3.40;;;3.10;;
33357;SDS011;19717;42.614;23.418;2022-08-11T14:05:04;4.25;;;3.58;;
33357;SDS011;19717;42.614;23.418;2022-08-11T14:07:34;6.47;;;3.65;;
33357;SDS011;19717;42.614;23.418;2022-08-11T14:10:03;7.40;;;3.55;;
33357;SDS011;19717;42.614;23.418;2022-08-11T14:12:31;4.25;;;3.13;;
33357;SDS011;19717;42.614;23.418;2022-08-11T14:15:21;4.22;;;3.30;;
33357;SDS011;19717;42.614;23.418;2022-08-11T14:20:30;5.85;;;3.22;;
33357;SDS011;19717;42.614;23.418;2022-08-11T14:23:15;3.17;;;2.88;;
33357;SDS011;19717;42.614;23.418;2022-08-11T14:25:41;3.72;;;3.05;;
33357;SDS011;19717;42.614;23.418;2022-08-11T14:28:29;4.05;;;2.72;;
33357;SDS011;19717;42.614;23.418;2022-08-11T14:30:57;6.05;;;3.33;;
33357;SDS011;19717;42.614;23.418;2022-08-11T14:33:23;3.90;;;3.50;;
33357;SDS011;19717;42.614;23.418;2022-08-11T14:35:49;5.68;;;3.88;;
33357;SDS011;19717;42.614;23.418;2022-08-11T14:38:15;4.95;;;3.33;;
33357;SDS011;19717;42.614;23.418;2022-08-11T14:40:42;3.85;;;3.28;;
33357;SDS011;19717;42.614;23.418;2022-08-11T14:43:27;4.68;;;3.13;;
33357;SDS011;19717;42.614;23.418;2022-08-11T14:46:12;4.47;;;3.30;;
33357;SDS011;19717;42.614;23.418;2022-08-11T14:48:57;5.60;;;3.20;;
33357;SDS011;19717;42.614;23.418;2022-08-11T14:51:24;3.28;;;2.92;;
33357;SDS011;19717;42.614;23.418;2022-08-11T14:53:51;3.25;;;2.80;;
33357;SDS011;19717;42.614;23.418;2022-08-11T14:56:37;4.45;;;3.30;;
33357;SDS011;19717;42.614;23.418;2022-08-11T14:59:05;3.72;;;3.28;;
33357;SDS011;19717;42.614;23.418;2022-08-11T15:01:31;3.40;;;3.10;;
33357;SDS011;19717;42.614;23.418;2022-08-11T15:04:24;4.95;;;3.30;;
33357;SDS011;19717;42.614;23.418;2022-08-11T15:06:50;3.67;;;3.28;;
33357;SDS011;19717;42.614;23.418;2022-08-11T15:09:17;3.85;;;3.35;;
33357;SDS011;19717;42.614;23.418;2022-08-11T15:11:43;4.70;;;3.50;;
33357;SDS011;19717;42.614;23.418;2022-08-11T15:14:28;3.92;;;3.53;;
33357;SDS011;19717;42.614;23.418;2022-08-11T15:17:12;3.90;;;3.50;;
33357;SDS011;19717;42.614;23.418;2022-08-11T15:19:40;4.95;;;3.63;;
33357;SDS011;19717;42.614;23.418;2022-08-11T15:22:29;4.22;;;3.40;;
33357;SDS011;19717;42.614;23.418;2022-08-11T15:25:14;4.70;;;3.53;;
33357;SDS011;19717;42.614;23.418;2022-08-11T15:27:41;4.40;;;3.75;;
33357;SDS011;19717;42.614;23.418;2022-08-11T15:30:28;5.57;;;3.25;;
33357;SDS011;19717;42.614;23.418;2022-08-11T15:33:14;4.03;;;3.63;;
33357;SDS011;19717;42.614;23.418;2022-08-11T15:36:00;7.65;;;3.83;;
33357;SDS011;19717;42.614;23.418;2022-08-11T15:38:50;4.07;;;3.50;;
33357;SDS011;19717;42.614;23.418;2022-08-11T15:41:17;5.05;;;3.63;;
33357;SDS011;19717;42.614;23.418;2022-08-11T15:44:05;4.53;;;3.85;;
33357;SDS011;19717;42.614;23.418;2022-08-11T15:46:50;6.05;;;3.33;;
33357;SDS011;19717;42.614;23.418;2022-08-11T15:49:18;10.98;;;3.45;;
33357;SDS011;19717;42.614;23.418;2022-08-11T15:54:15;4.55;;;3.60;;
33357;SDS011;19717;42.614;23.418;2022-08-11T15:56:43;9.00;;;4.03;;
33357;SDS011;19717;42.614;23.418;2022-08-11T15:59:10;7.00;;;3.53;;
33357;SDS011;19717;42.614;23.418;2022-08-11T16:01:55;10.07;;;3.67;;
33357;SDS011;19717;42.614;23.418;2022-08-11T16:04:40;5.30;;;3.80;;
33357;SDS011;19717;42.614;23.418;2022-08-11T16:07:09;5.32;;;4.03;;
33357;SDS011;19717;42.614;23.418;2022-08-11T16:09:37;8.05;;;4.72;;
33357;SDS011;19717;42.614;23.418;2022-08-11T16:12:07;7.82;;;4.32;;
33357;SDS011;19717;42.614;23.418;2022-08-11T16:14:35;6.90;;;3.75;;
33357;SDS011;19717;42.614;23.418;2022-08-11T16:17:21;4.43;;;3.78;;
33357;SDS011;19717;42.614;23.418;2022-08-11T16:19:48;3.90;;;3.53;;
33357;SDS011;19717;42.614;23.418;2022-08-11T16:22:19;5.20;;;3.35;;
33357;SDS011;19717;42.614;23.418;2022-08-11T16:24:52;6.28;;;3.45;;
33357;SDS011;19717;42.614;23.418;2022-08-11T16:27:18;3.53;;;3.22;;
33357;SDS011;19717;42.614;23.418;2022-08-11T16:29:45;4.43;;;3.75;;
33357;SDS011;19717;42.614;23.418;2022-08-11T16:32:13;4.60;;;3.60;;
33357;SDS011;19717;42.614;23.418;2022-08-11T16:34:42;4.40;;;3.30;;
33357;SDS011;19717;42.614;23.418;2022-08-11T16:37:28;4.50;;;3.08;;
33357;SDS011;19717;42.614;23.418;2022-08-11T16:40:13;8.07;;;3.20;;
33357;SDS011;19717;42.614;23.418;2022-08-11T16:42:40;5.28;;;3.17;;
33357;SDS011;19717;42.614;23.418;2022-08-11T16:45:25;8.15;;;3.47;;
33357;SDS011;19717;42.614;23.418;2022-08-11T16:48:10;6.53;;;3.28;;
33357;SDS011;19717;42.614;23.418;2022-08-11T16:50:37;4.10;;;3.50;;
33357;SDS011;19717;42.614;23.418;2022-08-11T16:53:04;13.07;;;3.50;;
33357;SDS011;19717;42.614;23.418;2022-08-11T16:55:30;7.05;;;3.95;;
33357;SDS011;19717;42.614;23.418;2022-08-11T16:57:58;5.50;;;3.97;;
33357;SDS011;19717;42.614;23.418;2022-08-11T17:00:43;3.85;;;3.03;;
33357;SDS011;19717;42.614;23.418;2022-08-11T17:03:10;6.10;;;3.58;;
33357;SDS011;19717;42.614;23.418;2022-08-11T17:05:55;3.72;;;3.30;;
33357;SDS011;19717;42.614;23.418;2022-08-11T17:08:50;7.88;;;3.50;;
33357;SDS011;19717;42.614;23.418;2022-08-11T17:11:39;14.88;;;3.58;;
33357;SDS011;19717;42.614;23.418;2022-08-11T17:14:36;9.25;;;3.63;;
33357;SDS011;19717;42.614;23.418;2022-08-11T17:17:05;5.97;;;3.53;;
33357;SDS011;19717;42.614;23.418;2022-08-11T17:19:32;5.65;;;3.47;;
33357;SDS011;19717;42.614;23.418;2022-08-11T17:21:59;10.25;;;3.92;;
33357;SDS011;19717;42.614;23.418;2022-08-11T17:24:45;5.60;;;3.05;;
33357;SDS011;19717;42.614;23.418;2022-08-11T17:27:12;3.22;;;3.03;;
33357;SDS011;19717;42.614;23.418;2022-08-11T17:29:51;4.57;;;3.30;;
33357;SDS011;19717;42.614;23.418;2022-08-11T17:32:22;8.70;;;3.40;;
33357;SDS011;19717;42.614;23.418;2022-08-11T17:35:08;6.70;;;3.40;;
33357;SDS011;19717;42.614;23.418;2022-08-11T17:40:22;9.82;;;3.50;;
33357;SDS011;19717;42.614;23.418;2022-08-11T17:42:50;8.38;;;3.00;;
33357;SDS011;19717;42.614;23.418;2022-08-11T17:45:37;6.43;;;3.40;;
33357;SDS011;19717;42.614;23.418;2022-08-11T17:48:23;9.18;;;4.32;;
33357;SDS011;19717;42.614;23.418;2022-08-11T17:50:50;6.00;;;3.72;;
33357;SDS011;19717;42.614;23.418;2022-08-11T17:53:17;5.75;;;3.80;;
33357;SDS011;19717;42.614;23.418;2022-08-11T17:56:02;7.15;;;3.47;;
33357;SDS011;19717;42.614;23.418;2022-08-11T17:58:47;4.15;;;3.60;;
33357;SDS011;19717;42.614;23.418;2022-08-11T18:01:40;7.30;;;3.67;;
33357;SDS011;19717;42.614;23.418;2022-08-11T18:04:08;7.10;;;4.40;;
33357;SDS011;19717;42.614;23.418;2022-08-11T18:06:35;3.97;;;3.38;;
33357;SDS011;19717;42.614;23.418;2022-08-11T18:09:03;7.20;;;3.78;;
33357;SDS011;19717;42.614;23.418;2022-08-11T18:11:48;4.85;;;3.75;;
33357;SDS011;19717;42.614;23.418;2022-08-11T18:14:35;7.18;;;4.05;;
33357;SDS011;19717;42.614;23.418;2022-08-11T18:17:20;4.75;;;3.60;;
33357;SDS011;19717;42.614;23.418;2022-08-11T18:20:05;11.68;;;3.88;;
33357;SDS011;19717;42.614;23.418;2022-08-11T18:22:51;4.50;;;3.83;;
33357;SDS011;19717;42.614;23.418;2022-08-11T18:25:40;6.32;;;3.90;;
33357;SDS011;19717;42.614;23.418;2022-08-11T18:28:26;4.50;;;3.45;;
33357;SDS011;19717;42.614;23.418;2022-08-11T18:31:14;4.32;;;3.92;;
33357;SDS011;19717;42.614;23.418;2022-08-11T18:34:03;5.90;;;3.80;;
33357;SDS011;19717;42.614;23.418;2022-08-11T18:36:51;3.67;;;3.30;;
33357;SDS011;19717;42.614;23.418;2022-08-11T18:39:41;6.22;;;3.47;;
33357;SDS011;19717;42.614;23.418;2022-08-11T18:42:27;7.22;;;3.53;;
33357;SDS011;19717;42.614;23.418;2022-08-11T18:45:14;4.20;;;3.55;;
33357;SDS011;19717;42.614;23.418;2022-08-11T18:48:03;7.35;;;3.90;;
33357;SDS011;19717;42.614;23.418;2022-08-11T18:50:50;3.72;;;3.40;;
33357;SDS011;19717;42.614;23.418;2022-08-11T18:53:36;4.00;;;3.45;;
33357;SDS011;19717;42.614;23.418;2022-08-11T18:56:22;4.88;;;3.63;;
33357;SDS011;19717;42.614;23.418;2022-08-11T18:59:08;3.90;;;3.50;;
33357;SDS011;19717;42.614;23.418;2022-08-11T19:01:55;5.05;;;3.50;;
33357;SDS011;19717;42.614;23.418;2022-08-11T19:04:41;5.30;;;3.90;;